sensor_id;sensor_type;location;lat;lon;timestamp;P1;durP1;ratioP1;P2;durP2;ratioP2
70663;SDS011;58237;57.996;56.290;2022-12-11T00:00:31;3.00;;;0.93;;
70663;SDS011;58237;57.996;56.290;2022-12-11T00:02:56;4.32;;;1.35;;
70663;SDS011;58237;57.996;56.290;2022-12-11T00:05:22;5.00;;;1.52;;
70663;SDS011;58237;57.996;56.290;2022-12-11T00:07:47;2.75;;;1.05;;
70663;SDS011;58237;57.996;56.290;2022-12-11T00:10:13;2.55;;;0.90;;
70663;SDS011;58237;57.996;56.290;2022-12-11T00:12:38;5.18;;;1.20;;
70663;SDS011;58237;57.996;56.290;2022-12-11T00:15:03;3.75;;;1.02;;
70663;SDS011;58237;57.996;56.290;2022-12-11T00:17:29;4.72;;;1.10;;
70663;SDS011;58237;57.996;56.290;2022-12-11T00:19:55;5.47;;;1.48;;
70663;SDS011;58237;57.996;56.290;2022-12-11T00:22:20;2.97;;;1.05;;
70663;SDS011;58237;57.996;56.290;2022-12-11T00:24:45;2.58;;;0.98;;
70663;SDS011;58237;57.996;56.290;2022-12-11T00:27:11;2.97;;;0.90;;
70663;SDS011;58237;57.996;56.290;2022-12-11T00:29:36;2.15;;;0.70;;
70663;SDS011;58237;57.996;56.290;2022-12-11T00:32:01;3.55;;;1.05;;
70663;SDS011;58237;57.996;56.290;2022-12-11T00:34:27;2.58;;;0.90;;
70663;SDS011;58237;57.996;56.290;2022-12-11T00:36:52;1.67;;;0.90;;
70663;SDS011;58237;57.996;56.290;2022-12-11T00:39:18;2.35;;;1.08;;
70663;SDS011;58237;57.996;56.290;2022-12-11T00:41:43;3.45;;;0.88;;
70663;SDS011;58237;57.996;56.290;2022-12-11T00:44:08;2.70;;;1.00;;
70663;SDS011;58237;57.996;56.290;2022-12-11T00:46:34;2.10;;;0.90;;
70663;SDS011;58237;57.996;56.290;2022-12-11T00:48:59;1.63;;;0.88;;
70663;SDS011;58237;57.996;56.290;2022-12-11T00:51:24;3.50;;;1.48;;
70663;SDS011;58237;57.996;56.290;2022-12-11T00:53:50;2.22;;;0.95;;
70663;SDS011;58237;57.996;56.290;2022-12-11T00:56:17;3.22;;;1.08;;
70663;SDS011;58237;57.996;56.290;2022-12-11T00:58:43;4.78;;;1.23;;
70663;SDS011;58237;57.996;56.290;2022-12-11T01:01:11;1.77;;;0.80;;
70663;SDS011;58237;57.996;56.290;2022-12-11T01:03:36;1.77;;;0.80;;
70663;SDS011;58237;57.996;56.290;2022-12-11T01:06:02;2.65;;;1.20;;
70663;SDS011;58237;57.996;56.290;2022-12-11T01:08:28;2.50;;;0.90;;
70663;SDS011;58237;57.996;56.290;2022-12-11T01:11:00;3.92;;;1.35;;
70663;SDS011;58237;57.996;56.290;2022-12-11T01:13:25;3.38;;;1.10;;
70663;SDS011;58237;57.996;56.290;2022-12-11T01:15:51;2.28;;;0.75;;
70663;SDS011;58237;57.996;56.290;2022-12-11T01:18:16;3.58;;;1.10;;
70663;SDS011;58237;57.996;56.290;2022-12-11T01:20:42;3.22;;;1.20;;
70663;SDS011;58237;57.996;56.290;2022-12-11T01:23:08;4.82;;;1.70;;
70663;SDS011;58237;57.996;56.290;2022-12-11T01:25:35;2.08;;;1.00;;
70663;SDS011;58237;57.996;56.290;2022-12-11T01:28:00;3.03;;;0.95;;
70663;SDS011;58237;57.996;56.290;2022-12-11T01:30:25;2.67;;;0.95;;
70663;SDS011;58237;57.996;56.290;2022-12-11T01:32:51;3.17;;;1.13;;
70663;SDS011;58237;57.996;56.290;2022-12-11T01:35:16;1.83;;;0.77;;
70663;SDS011;58237;57.996;56.290;2022-12-11T01:37:42;3.20;;;1.30;;
70663;SDS011;58237;57.996;56.290;2022-12-11T01:40:08;3.70;;;1.10;;
70663;SDS011;58237;57.996;56.290;2022-12-11T01:42:34;2.65;;;1.30;;
70663;SDS011;58237;57.996;56.290;2022-12-11T01:47:43;2.47;;;1.00;;
70663;SDS011;58237;57.996;56.290;2022-12-11T01:50:08;2.65;;;0.80;;
70663;SDS011;58237;57.996;56.290;2022-12-11T01:52:34;3.20;;;1.30;;
70663;SDS011;58237;57.996;56.290;2022-12-11T01:55:00;3.45;;;1.10;;
70663;SDS011;58237;57.996;56.290;2022-12-11T01:57:25;2.25;;;0.70;;
70663;SDS011;58237;57.996;56.290;2022-12-11T01:59:51;4.45;;;1.10;;
70663;SDS011;58237;57.996;56.290;2022-12-11T02:02:26;2.42;;;0.80;;
70663;SDS011;58237;57.996;56.290;2022-12-11T02:04:52;4.00;;;1.33;;
70663;SDS011;58237;57.996;56.290;2022-12-11T02:07:17;3.92;;;1.00;;
70663;SDS011;58237;57.996;56.290;2022-12-11T02:09:44;2.80;;;0.90;;
70663;SDS011;58237;57.996;56.290;2022-12-11T02:12:14;2.75;;;1.05;;
70663;SDS011;58237;57.996;56.290;2022-12-11T02:14:52;4.65;;;1.40;;
70663;SDS011;58237;57.996;56.290;2022-12-11T02:17:22;1.90;;;0.77;;
70663;SDS011;58237;57.996;56.290;2022-12-11T02:27:46;2.85;;;0.80;;
70663;SDS011;58237;57.996;56.290;2022-12-11T02:30:14;3.65;;;0.85;;
70663;SDS011;58237;57.996;56.290;2022-12-11T02:32:52;4.68;;;1.45;;
70663;SDS011;58237;57.996;56.290;2022-12-11T02:35:32;2.92;;;0.90;;
70663;SDS011;58237;57.996;56.290;2022-12-11T02:38:07;4.10;;;0.93;;
70663;SDS011;58237;57.996;56.290;2022-12-11T02:40:36;3.47;;;1.00;;
70663;SDS011;58237;57.996;56.290;2022-12-11T02:43:03;3.40;;;1.20;;
70663;SDS011;58237;57.996;56.290;2022-12-11T02:45:30;2.63;;;0.80;;
70663;SDS011;58237;57.996;56.290;2022-12-11T02:47:56;3.22;;;1.20;;
70663;SDS011;58237;57.996;56.290;2022-12-11T02:50:22;2.22;;;0.73;;
70663;SDS011;58237;57.996;56.290;2022-12-11T02:52:49;1.77;;;0.80;;
70663;SDS011;58237;57.996;56.290;2022-12-11T02:55:16;2.85;;;0.93;;
70663;SDS011;58237;57.996;56.290;2022-12-11T02:57:46;2.95;;;0.88;;
70663;SDS011;58237;57.996;56.290;2022-12-11T03:00:13;1.55;;;0.60;;
70663;SDS011;58237;57.996;56.290;2022-12-11T03:02:38;2.78;;;1.00;;
70663;SDS011;58237;57.996;56.290;2022-12-11T03:05:04;2.63;;;1.00;;
70663;SDS011;58237;57.996;56.290;2022-12-11T03:07:31;2.15;;;1.00;;
70663;SDS011;58237;57.996;56.290;2022-12-11T03:09:58;3.92;;;1.02;;
70663;SDS011;58237;57.996;56.290;2022-12-11T03:12:27;1.98;;;0.90;;
70663;SDS011;58237;57.996;56.290;2022-12-11T03:14:53;4.53;;;1.33;;
70663;SDS011;58237;57.996;56.290;2022-12-11T03:17:22;2.33;;;1.00;;
70663;SDS011;58237;57.996;56.290;2022-12-11T03:22:33;2.40;;;1.10;;
70663;SDS011;58237;57.996;56.290;2022-12-11T03:25:09;2.10;;;0.95;;
70663;SDS011;58237;57.996;56.290;2022-12-11T03:27:38;4.10;;;1.33;;
70663;SDS011;58237;57.996;56.290;2022-12-11T03:30:05;3.50;;;0.90;;
70663;SDS011;58237;57.996;56.290;2022-12-11T03:32:35;2.67;;;0.98;;
70663;SDS011;58237;57.996;56.290;2022-12-11T03:35:10;1.83;;;0.90;;
70663;SDS011;58237;57.996;56.290;2022-12-11T03:37:37;3.75;;;1.10;;
70663;SDS011;58237;57.996;56.290;2022-12-11T03:40:05;2.78;;;1.15;;
70663;SDS011;58237;57.996;56.290;2022-12-11T03:42:32;2.63;;;1.40;;
70663;SDS011;58237;57.996;56.290;2022-12-11T03:44:58;3.83;;;1.25;;
70663;SDS011;58237;57.996;56.290;2022-12-11T03:47:24;4.90;;;1.25;;
70663;SDS011;58237;57.996;56.290;2022-12-11T03:49:50;4.28;;;1.30;;
70663;SDS011;58237;57.996;56.290;2022-12-11T03:52:16;2.65;;;1.00;;
70663;SDS011;58237;57.996;56.290;2022-12-11T03:54:44;4.00;;;1.50;;
70663;SDS011;58237;57.996;56.290;2022-12-11T03:57:10;4.03;;;1.10;;
70663;SDS011;58237;57.996;56.290;2022-12-11T03:59:37;3.70;;;1.20;;
70663;SDS011;58237;57.996;56.290;2022-12-11T04:02:03;3.83;;;1.10;;
70663;SDS011;58237;57.996;56.290;2022-12-11T04:04:28;3.92;;;1.38;;
70663;SDS011;58237;57.996;56.290;2022-12-11T04:06:54;3.13;;;1.23;;
70663;SDS011;58237;57.996;56.290;2022-12-11T04:09:19;3.28;;;1.35;;
70663;SDS011;58237;57.996;56.290;2022-12-11T04:11:44;2.28;;;0.70;;
70663;SDS011;58237;57.996;56.290;2022-12-11T04:14:11;4.68;;;1.63;;
70663;SDS011;58237;57.996;56.290;2022-12-11T04:16:36;2.97;;;1.27;;
70663;SDS011;58237;57.996;56.290;2022-12-11T04:19:02;4.47;;;1.38;;
70663;SDS011;58237;57.996;56.290;2022-12-11T04:21:27;5.72;;;1.20;;
70663;SDS011;58237;57.996;56.290;2022-12-11T04:23:53;3.53;;;1.15;;
70663;SDS011;58237;57.996;56.290;2022-12-11T04:26:18;2.95;;;0.80;;
70663;SDS011;58237;57.996;56.290;2022-12-11T04:28:44;3.38;;;1.23;;
70663;SDS011;58237;57.996;56.290;2022-12-11T04:31:13;2.63;;;1.10;;
70663;SDS011;58237;57.996;56.290;2022-12-11T04:33:39;4.43;;;1.73;;
70663;SDS011;58237;57.996;56.290;2022-12-11T04:36:05;6.40;;;1.33;;
70663;SDS011;58237;57.996;56.290;2022-12-11T04:38:30;2.55;;;1.27;;
70663;SDS011;58237;57.996;56.290;2022-12-11T04:40:59;3.40;;;1.60;;
70663;SDS011;58237;57.996;56.290;2022-12-11T04:43:25;4.55;;;1.58;;
70663;SDS011;58237;57.996;56.290;2022-12-11T04:45:58;4.80;;;1.95;;
70663;SDS011;58237;57.996;56.290;2022-12-11T04:48:24;4.40;;;1.48;;
70663;SDS011;58237;57.996;56.290;2022-12-11T04:50:49;3.20;;;1.17;;
70663;SDS011;58237;57.996;56.290;2022-12-11T04:53:14;2.83;;;1.23;;
70663;SDS011;58237;57.996;56.290;2022-12-11T04:55:40;3.53;;;1.20;;
70663;SDS011;58237;57.996;56.290;2022-12-11T04:58:05;7.78;;;2.33;;
70663;SDS011;58237;57.996;56.290;2022-12-11T05:00:30;4.55;;;1.48;;
70663;SDS011;58237;57.996;56.290;2022-12-11T05:02:56;6.22;;;2.40;;
70663;SDS011;58237;57.996;56.290;2022-12-11T05:05:21;5.18;;;2.00;;
70663;SDS011;58237;57.996;56.290;2022-12-11T05:07:46;4.55;;;1.90;;
70663;SDS011;58237;57.996;56.290;2022-12-11T05:10:12;5.95;;;1.63;;
70663;SDS011;58237;57.996;56.290;2022-12-11T05:12:38;6.10;;;2.35;;
70663;SDS011;58237;57.996;56.290;2022-12-11T05:15:03;7.53;;;2.00;;
70663;SDS011;58237;57.996;56.290;2022-12-11T05:17:29;3.53;;;1.45;;
70663;SDS011;58237;57.996;56.290;2022-12-11T05:19:54;3.28;;;1.52;;
70663;SDS011;58237;57.996;56.290;2022-12-11T05:22:20;4.38;;;1.63;;
70663;SDS011;58237;57.996;56.290;2022-12-11T05:24:45;5.82;;;2.15;;
70663;SDS011;58237;57.996;56.290;2022-12-11T05:27:10;5.18;;;1.60;;
70663;SDS011;58237;57.996;56.290;2022-12-11T05:29:36;2.35;;;1.25;;
70663;SDS011;58237;57.996;56.290;2022-12-11T05:32:01;2.55;;;1.20;;
70663;SDS011;58237;57.996;56.290;2022-12-11T05:34:27;2.88;;;1.30;;
70663;SDS011;58237;57.996;56.290;2022-12-11T05:36:52;4.22;;;1.30;;
70663;SDS011;58237;57.996;56.290;2022-12-11T05:39:17;2.58;;;0.90;;
70663;SDS011;58237;57.996;56.290;2022-12-11T05:41:43;6.15;;;2.33;;
70663;SDS011;58237;57.996;56.290;2022-12-11T05:44:12;4.25;;;1.60;;
70663;SDS011;58237;57.996;56.290;2022-12-11T05:46:37;3.92;;;1.17;;
70663;SDS011;58237;57.996;56.290;2022-12-11T05:49:03;4.13;;;1.52;;
70663;SDS011;58237;57.996;56.290;2022-12-11T05:51:28;5.30;;;1.70;;
70663;SDS011;58237;57.996;56.290;2022-12-11T05:53:54;3.75;;;1.30;;
70663;SDS011;58237;57.996;56.290;2022-12-11T05:56:22;7.18;;;1.85;;
70663;SDS011;58237;57.996;56.290;2022-12-11T05:58:48;3.20;;;1.30;;
70663;SDS011;58237;57.996;56.290;2022-12-11T06:01:27;5.90;;;2.38;;
70663;SDS011;58237;57.996;56.290;2022-12-11T06:03:53;4.30;;;1.60;;
70663;SDS011;58237;57.996;56.290;2022-12-11T06:06:19;6.85;;;1.95;;
70663;SDS011;58237;57.996;56.290;2022-12-11T06:08:44;4.72;;;1.88;;
70663;SDS011;58237;57.996;56.290;2022-12-11T06:11:11;5.05;;;1.77;;
70663;SDS011;58237;57.996;56.290;2022-12-11T06:13:36;5.40;;;1.88;;
70663;SDS011;58237;57.996;56.290;2022-12-11T06:16:02;3.88;;;1.25;;
70663;SDS011;58237;57.996;56.290;2022-12-11T06:18:27;6.10;;;2.17;;
70663;SDS011;58237;57.996;56.290;2022-12-11T06:20:53;4.47;;;1.60;;
70663;SDS011;58237;57.996;56.290;2022-12-11T06:23:18;5.25;;;2.20;;
70663;SDS011;58237;57.996;56.290;2022-12-11T06:25:44;6.35;;;1.65;;
70663;SDS011;58237;57.996;56.290;2022-12-11T06:28:09;5.22;;;2.55;;
70663;SDS011;58237;57.996;56.290;2022-12-11T06:30:34;5.25;;;1.60;;
70663;SDS011;58237;57.996;56.290;2022-12-11T06:33:00;6.57;;;1.85;;
70663;SDS011;58237;57.996;56.290;2022-12-11T06:35:25;4.18;;;1.90;;
70663;SDS011;58237;57.996;56.290;2022-12-11T06:37:50;5.65;;;1.85;;
70663;SDS011;58237;57.996;56.290;2022-12-11T06:40:16;4.78;;;1.73;;
70663;SDS011;58237;57.996;56.290;2022-12-11T06:42:41;2.72;;;1.10;;
70663;SDS011;58237;57.996;56.290;2022-12-11T06:45:07;3.22;;;1.50;;
70663;SDS011;58237;57.996;56.290;2022-12-11T06:47:32;5.82;;;2.20;;
70663;SDS011;58237;57.996;56.290;2022-12-11T06:49:58;5.65;;;2.50;;
70663;SDS011;58237;57.996;56.290;2022-12-11T06:52:23;5.28;;;2.10;;
70663;SDS011;58237;57.996;56.290;2022-12-11T06:54:49;5.18;;;2.38;;
70663;SDS011;58237;57.996;56.290;2022-12-11T06:57:15;3.00;;;1.30;;
70663;SDS011;58237;57.996;56.290;2022-12-11T06:59:40;3.65;;;1.92;;
70663;SDS011;58237;57.996;56.290;2022-12-11T07:02:05;6.45;;;2.10;;
70663;SDS011;58237;57.996;56.290;2022-12-11T07:04:31;4.38;;;1.80;;
70663;SDS011;58237;57.996;56.290;2022-12-11T07:06:56;4.13;;;1.60;;
70663;SDS011;58237;57.996;56.290;2022-12-11T07:09:22;4.18;;;1.60;;
70663;SDS011;58237;57.996;56.290;2022-12-11T07:11:50;4.95;;;1.63;;
70663;SDS011;58237;57.996;56.290;2022-12-11T07:14:16;5.50;;;2.38;;
70663;SDS011;58237;57.996;56.290;2022-12-11T07:16:41;5.25;;;1.70;;
70663;SDS011;58237;57.996;56.290;2022-12-11T07:19:07;4.03;;;1.60;;
70663;SDS011;58237;57.996;56.290;2022-12-11T07:21:32;1.73;;;0.88;;
70663;SDS011;58237;57.996;56.290;2022-12-11T07:23:58;3.58;;;1.45;;
70663;SDS011;58237;57.996;56.290;2022-12-11T07:26:23;3.47;;;1.40;;
70663;SDS011;58237;57.996;56.290;2022-12-11T07:28:49;4.82;;;1.50;;
70663;SDS011;58237;57.996;56.290;2022-12-11T07:31:15;4.82;;;1.73;;
70663;SDS011;58237;57.996;56.290;2022-12-11T07:33:41;5.40;;;1.52;;
70663;SDS011;58237;57.996;56.290;2022-12-11T07:36:07;4.47;;;1.42;;
70663;SDS011;58237;57.996;56.290;2022-12-11T07:38:33;4.13;;;1.35;;
70663;SDS011;58237;57.996;56.290;2022-12-11T07:41:02;6.53;;;2.05;;
70663;SDS011;58237;57.996;56.290;2022-12-11T07:43:27;5.25;;;2.53;;
70663;SDS011;58237;57.996;56.290;2022-12-11T07:45:53;5.60;;;1.55;;
70663;SDS011;58237;57.996;56.290;2022-12-11T07:48:18;5.75;;;1.70;;
70663;SDS011;58237;57.996;56.290;2022-12-11T07:50:43;4.55;;;1.80;;
70663;SDS011;58237;57.996;56.290;2022-12-11T07:53:09;4.93;;;2.22;;
70663;SDS011;58237;57.996;56.290;2022-12-11T07:55:34;3.28;;;1.33;;
70663;SDS011;58237;57.996;56.290;2022-12-11T07:57:59;5.45;;;1.70;;
70663;SDS011;58237;57.996;56.290;2022-12-11T08:00:25;6.60;;;1.55;;
70663;SDS011;58237;57.996;56.290;2022-12-11T08:02:50;5.30;;;1.95;;
70663;SDS011;58237;57.996;56.290;2022-12-11T08:05:16;6.60;;;2.22;;
70663;SDS011;58237;57.996;56.290;2022-12-11T08:07:41;4.10;;;1.50;;
70663;SDS011;58237;57.996;56.290;2022-12-11T08:10:06;5.80;;;1.88;;
70663;SDS011;58237;57.996;56.290;2022-12-11T08:12:32;4.60;;;1.80;;
70663;SDS011;58237;57.996;56.290;2022-12-11T08:14:57;4.05;;;1.75;;
70663;SDS011;58237;57.996;56.290;2022-12-11T08:17:22;6.85;;;1.90;;
70663;SDS011;58237;57.996;56.290;2022-12-11T08:19:48;4.32;;;1.58;;
70663;SDS011;58237;57.996;56.290;2022-12-11T08:22:13;5.38;;;2.00;;
70663;SDS011;58237;57.996;56.290;2022-12-11T08:24:39;5.80;;;1.55;;
70663;SDS011;58237;57.996;56.290;2022-12-11T08:27:04;3.42;;;1.25;;
70663;SDS011;58237;57.996;56.290;2022-12-11T08:29:29;6.40;;;2.17;;
70663;SDS011;58237;57.996;56.290;2022-12-11T08:31:55;6.05;;;2.05;;
70663;SDS011;58237;57.996;56.290;2022-12-11T08:34:20;4.55;;;1.48;;
70663;SDS011;58237;57.996;56.290;2022-12-11T08:36:46;5.30;;;1.90;;
70663;SDS011;58237;57.996;56.290;2022-12-11T08:39:11;5.82;;;2.10;;
70663;SDS011;58237;57.996;56.290;2022-12-11T08:41:36;4.88;;;1.55;;
70663;SDS011;58237;57.996;56.290;2022-12-11T08:44:02;5.13;;;1.52;;
70663;SDS011;58237;57.996;56.290;2022-12-11T08:46:28;4.88;;;1.88;;
70663;SDS011;58237;57.996;56.290;2022-12-11T08:48:54;5.28;;;2.10;;
70663;SDS011;58237;57.996;56.290;2022-12-11T08:51:21;6.70;;;2.00;;
70663;SDS011;58237;57.996;56.290;2022-12-11T08:53:47;4.38;;;1.75;;
70663;SDS011;58237;57.996;56.290;2022-12-11T08:56:13;5.30;;;1.67;;
70663;SDS011;58237;57.996;56.290;2022-12-11T08:58:39;6.65;;;2.88;;
70663;SDS011;58237;57.996;56.290;2022-12-11T09:01:05;4.38;;;1.65;;
70663;SDS011;58237;57.996;56.290;2022-12-11T09:03:31;5.75;;;1.75;;
70663;SDS011;58237;57.996;56.290;2022-12-11T09:05:56;5.47;;;2.25;;
70663;SDS011;58237;57.996;56.290;2022-12-11T09:08:22;8.65;;;2.40;;
70663;SDS011;58237;57.996;56.290;2022-12-11T09:10:47;5.75;;;1.60;;
70663;SDS011;58237;57.996;56.290;2022-12-11T09:13:12;7.00;;;2.20;;
70663;SDS011;58237;57.996;56.290;2022-12-11T09:15:41;5.68;;;2.00;;
70663;SDS011;58237;57.996;56.290;2022-12-11T09:18:07;7.05;;;2.15;;
70663;SDS011;58237;57.996;56.290;2022-12-11T09:20:32;5.75;;;2.33;;
70663;SDS011;58237;57.996;56.290;2022-12-11T09:22:57;5.80;;;1.85;;
70663;SDS011;58237;57.996;56.290;2022-12-11T09:25:23;5.72;;;2.38;;
70663;SDS011;58237;57.996;56.290;2022-12-11T09:27:48;6.47;;;2.78;;
70663;SDS011;58237;57.996;56.290;2022-12-11T09:30:13;5.28;;;2.03;;
70663;SDS011;58237;57.996;56.290;2022-12-11T09:32:39;7.03;;;2.33;;
70663;SDS011;58237;57.996;56.290;2022-12-11T09:35:04;8.30;;;2.40;;
70663;SDS011;58237;57.996;56.290;2022-12-11T09:37:31;3.90;;;1.48;;
70663;SDS011;58237;57.996;56.290;2022-12-11T09:39:57;5.13;;;2.00;;
70663;SDS011;58237;57.996;56.290;2022-12-11T09:42:24;5.13;;;1.80;;
70663;SDS011;58237;57.996;56.290;2022-12-11T09:44:55;8.43;;;2.53;;
70663;SDS011;58237;57.996;56.290;2022-12-11T09:47:23;4.82;;;2.10;;
70663;SDS011;58237;57.996;56.290;2022-12-11T09:49:57;4.35;;;1.73;;
70663;SDS011;58237;57.996;56.290;2022-12-11T09:53:12;6.10;;;2.33;;
70663;SDS011;58237;57.996;56.290;2022-12-11T09:55:14;8.07;;;1.98;;
70663;SDS011;58237;57.996;56.290;2022-12-11T10:00:46;6.38;;;1.88;;
70663;SDS011;58237;57.996;56.290;2022-12-11T10:13:43;8.07;;;2.58;;
70663;SDS011;58237;57.996;56.290;2022-12-11T10:18:40;6.32;;;2.10;;
70663;SDS011;58237;57.996;56.290;2022-12-11T10:21:06;10.80;;;1.90;;
70663;SDS011;58237;57.996;56.290;2022-12-11T10:23:37;6.10;;;2.60;;
70663;SDS011;58237;57.996;56.290;2022-12-11T10:26:15;5.43;;;2.22;;
70663;SDS011;58237;57.996;56.290;2022-12-11T10:28:41;6.18;;;2.10;;
70663;SDS011;58237;57.996;56.290;2022-12-11T10:33:58;5.85;;;1.48;;
70663;SDS011;58237;57.996;56.290;2022-12-11T10:36:31;7.80;;;2.47;;
70663;SDS011;58237;57.996;56.290;2022-12-11T10:41:25;6.45;;;2.10;;
70663;SDS011;58237;57.996;56.290;2022-12-11T10:43:55;10.55;;;2.78;;
70663;SDS011;58237;57.996;56.290;2022-12-11T10:46:24;4.80;;;1.92;;
70663;SDS011;58237;57.996;56.290;2022-12-11T10:48:54;8.23;;;3.25;;
70663;SDS011;58237;57.996;56.290;2022-12-11T10:51:21;7.68;;;1.95;;
70663;SDS011;58237;57.996;56.290;2022-12-11T10:53:50;13.15;;;4.20;;
70663;SDS011;58237;57.996;56.290;2022-12-11T10:56:23;7.93;;;2.67;;
70663;SDS011;58237;57.996;56.290;2022-12-11T10:58:48;9.45;;;3.47;;
70663;SDS011;58237;57.996;56.290;2022-12-11T11:01:15;7.85;;;2.92;;
70663;SDS011;58237;57.996;56.290;2022-12-11T11:03:54;9.45;;;2.53;;
70663;SDS011;58237;57.996;56.290;2022-12-11T11:06:21;7.55;;;2.38;;
70663;SDS011;58237;57.996;56.290;2022-12-11T11:08:47;7.45;;;2.20;;
70663;SDS011;58237;57.996;56.290;2022-12-11T11:11:35;9.30;;;3.72;;
70663;SDS011;58237;57.996;56.290;2022-12-11T11:14:16;6.78;;;3.00;;
70663;SDS011;58237;57.996;56.290;2022-12-11T11:16:42;7.93;;;2.58;;
70663;SDS011;58237;57.996;56.290;2022-12-11T11:19:14;10.15;;;3.28;;
70663;SDS011;58237;57.996;56.290;2022-12-11T11:21:46;9.55;;;3.00;;
70663;SDS011;58237;57.996;56.290;2022-12-11T11:26:47;5.78;;;2.72;;
70663;SDS011;58237;57.996;56.290;2022-12-11T11:29:21;9.85;;;3.38;;
70663;SDS011;58237;57.996;56.290;2022-12-11T11:31:47;8.75;;;2.92;;
70663;SDS011;58237;57.996;56.290;2022-12-11T11:34:17;10.38;;;4.53;;
70663;SDS011;58237;57.996;56.290;2022-12-11T11:36:43;9.02;;;3.42;;
70663;SDS011;58237;57.996;56.290;2022-12-11T11:39:21;10.60;;;2.97;;
70663;SDS011;58237;57.996;56.290;2022-12-11T11:41:49;7.65;;;2.53;;
70663;SDS011;58237;57.996;56.290;2022-12-11T11:44:18;7.30;;;2.22;;
70663;SDS011;58237;57.996;56.290;2022-12-11T11:46:52;13.68;;;3.30;;
70663;SDS011;58237;57.996;56.290;2022-12-11T11:49:23;8.55;;;3.65;;
70663;SDS011;58237;57.996;56.290;2022-12-11T11:54:35;9.10;;;3.60;;
70663;SDS011;58237;57.996;56.290;2022-12-11T11:57:03;9.70;;;3.38;;
70663;SDS011;58237;57.996;56.290;2022-12-11T11:59:33;8.20;;;2.88;;
70663;SDS011;58237;57.996;56.290;2022-12-11T12:02:01;7.00;;;3.17;;
70663;SDS011;58237;57.996;56.290;2022-12-11T12:04:30;5.68;;;2.38;;
70663;SDS011;58237;57.996;56.290;2022-12-11T12:30:19;7.07;;;2.60;;
70663;SDS011;58237;57.996;56.290;2022-12-11T12:35:31;6.68;;;2.38;;
70663;SDS011;58237;57.996;56.290;2022-12-11T12:38:14;6.55;;;2.85;;
70663;SDS011;58237;57.996;56.290;2022-12-11T12:43:39;12.63;;;2.65;;
70663;SDS011;58237;57.996;56.290;2022-12-11T12:46:15;8.27;;;2.88;;
70663;SDS011;58237;57.996;56.290;2022-12-11T12:48:44;8.93;;;2.90;;
70663;SDS011;58237;57.996;56.290;2022-12-11T12:51:12;8.77;;;2.83;;
70663;SDS011;58237;57.996;56.290;2022-12-11T12:53:37;7.57;;;3.13;;
70663;SDS011;58237;57.996;56.290;2022-12-11T12:56:03;9.00;;;3.33;;
70663;SDS011;58237;57.996;56.290;2022-12-11T12:58:39;7.78;;;2.90;;
70663;SDS011;58237;57.996;56.290;2022-12-11T13:03:47;10.57;;;3.30;;
70663;SDS011;58237;57.996;56.290;2022-12-11T13:06:13;7.53;;;2.90;;
70663;SDS011;58237;57.996;56.290;2022-12-11T13:08:41;7.57;;;2.67;;
70663;SDS011;58237;57.996;56.290;2022-12-11T13:11:10;8.00;;;3.13;;
70663;SDS011;58237;57.996;56.290;2022-12-11T13:13:37;8.45;;;3.10;;
70663;SDS011;58237;57.996;56.290;2022-12-11T13:18:41;8.73;;;2.53;;
70663;SDS011;58237;57.996;56.290;2022-12-11T13:23:51;11.18;;;4.18;;
70663;SDS011;58237;57.996;56.290;2022-12-11T13:26:29;10.93;;;3.85;;
70663;SDS011;58237;57.996;56.290;2022-12-11T13:28:55;10.10;;;3.75;;
70663;SDS011;58237;57.996;56.290;2022-12-11T13:33:50;12.38;;;4.45;;
70663;SDS011;58237;57.996;56.290;2022-12-11T13:36:21;7.82;;;2.75;;
70663;SDS011;58237;57.996;56.290;2022-12-11T13:38:52;7.47;;;2.70;;
70663;SDS011;58237;57.996;56.290;2022-12-11T13:41:18;8.45;;;3.00;;
70663;SDS011;58237;57.996;56.290;2022-12-11T13:43:43;10.23;;;2.50;;
70663;SDS011;58237;57.996;56.290;2022-12-11T13:46:11;6.53;;;2.72;;
70663;SDS011;58237;57.996;56.290;2022-12-11T13:48:47;7.07;;;3.30;;
70663;SDS011;58237;57.996;56.290;2022-12-11T13:51:19;8.85;;;3.60;;
70663;SDS011;58237;57.996;56.290;2022-12-11T13:53:44;8.82;;;3.97;;
70663;SDS011;58237;57.996;56.290;2022-12-11T13:56:19;10.02;;;3.38;;
70663;SDS011;58237;57.996;56.290;2022-12-11T13:58:45;11.98;;;3.17;;
70663;SDS011;58237;57.996;56.290;2022-12-11T14:01:19;10.25;;;3.22;;
70663;SDS011;58237;57.996;56.290;2022-12-11T14:06:20;8.20;;;3.00;;
70663;SDS011;58237;57.996;56.290;2022-12-11T14:08:47;7.70;;;3.10;;
70663;SDS011;58237;57.996;56.290;2022-12-11T14:11:19;11.32;;;4.82;;
70663;SDS011;58237;57.996;56.290;2022-12-11T14:13:45;9.02;;;3.90;;
70663;SDS011;58237;57.996;56.290;2022-12-11T14:16:18;11.48;;;4.65;;
70663;SDS011;58237;57.996;56.290;2022-12-11T14:18:44;10.27;;;3.53;;
70663;SDS011;58237;57.996;56.290;2022-12-11T14:21:17;9.75;;;3.38;;
70663;SDS011;58237;57.996;56.290;2022-12-11T14:23:49;9.40;;;3.55;;
70663;SDS011;58237;57.996;56.290;2022-12-11T14:28:43;7.30;;;3.22;;
70663;SDS011;58237;57.996;56.290;2022-12-11T14:31:08;8.23;;;3.00;;
70663;SDS011;58237;57.996;56.290;2022-12-11T14:33:39;9.23;;;3.90;;
70663;SDS011;58237;57.996;56.290;2022-12-11T14:36:04;8.45;;;2.70;;
70663;SDS011;58237;57.996;56.290;2022-12-11T14:41:00;7.28;;;2.53;;
70663;SDS011;58237;57.996;56.290;2022-12-11T14:46:06;6.68;;;2.25;;
70663;SDS011;58237;57.996;56.290;2022-12-11T14:48:34;9.40;;;3.00;;
70663;SDS011;58237;57.996;56.290;2022-12-11T14:51:02;6.13;;;2.33;;
70663;SDS011;58237;57.996;56.290;2022-12-11T14:53:30;7.63;;;2.67;;
70663;SDS011;58237;57.996;56.290;2022-12-11T14:55:58;9.85;;;3.50;;
70663;SDS011;58237;57.996;56.290;2022-12-11T14:58:25;9.40;;;2.83;;
70663;SDS011;58237;57.996;56.290;2022-12-11T15:01:04;6.63;;;2.65;;
70663;SDS011;58237;57.996;56.290;2022-12-11T15:03:34;8.73;;;2.50;;
70663;SDS011;58237;57.996;56.290;2022-12-11T15:06:00;7.22;;;2.40;;
70663;SDS011;58237;57.996;56.290;2022-12-11T15:08:29;7.30;;;2.33;;
70663;SDS011;58237;57.996;56.290;2022-12-11T15:13:24;8.48;;;3.08;;
70663;SDS011;58237;57.996;56.290;2022-12-11T15:15:49;10.23;;;3.15;;
70663;SDS011;58237;57.996;56.290;2022-12-11T15:18:22;6.53;;;2.45;;
70663;SDS011;58237;57.996;56.290;2022-12-11T15:20:49;6.50;;;2.45;;
70663;SDS011;58237;57.996;56.290;2022-12-11T15:23:15;9.90;;;2.88;;
70663;SDS011;58237;57.996;56.290;2022-12-11T15:25:40;7.82;;;3.10;;
70663;SDS011;58237;57.996;56.290;2022-12-11T15:28:27;8.38;;;2.45;;
70663;SDS011;58237;57.996;56.290;2022-12-11T15:30:54;10.43;;;3.75;;
70663;SDS011;58237;57.996;56.290;2022-12-11T15:33:20;5.15;;;2.42;;
70663;SDS011;58237;57.996;56.290;2022-12-11T15:35:52;7.20;;;2.35;;
70663;SDS011;58237;57.996;56.290;2022-12-11T15:38:28;7.30;;;2.90;;
70663;SDS011;58237;57.996;56.290;2022-12-11T15:40:54;7.60;;;2.67;;
70663;SDS011;58237;57.996;56.290;2022-12-11T15:43:19;8.80;;;2.90;;
70663;SDS011;58237;57.996;56.290;2022-12-11T15:45:45;7.03;;;2.70;;
70663;SDS011;58237;57.996;56.290;2022-12-11T15:48:10;7.10;;;2.42;;
70663;SDS011;58237;57.996;56.290;2022-12-11T15:50:36;6.28;;;2.47;;
70663;SDS011;58237;57.996;56.290;2022-12-11T15:53:01;6.22;;;1.98;;
70663;SDS011;58237;57.996;56.290;2022-12-11T15:55:27;7.85;;;2.78;;
70663;SDS011;58237;57.996;56.290;2022-12-11T15:57:54;6.32;;;2.70;;
70663;SDS011;58237;57.996;56.290;2022-12-11T16:00:20;7.55;;;2.55;;
70663;SDS011;58237;57.996;56.290;2022-12-11T16:02:46;7.10;;;2.72;;
70663;SDS011;58237;57.996;56.290;2022-12-11T16:05:12;11.25;;;4.32;;